Sill Hill (79, 626) Station Data

Red Flag Warning: No
Fire Weather Zone: 258
SDGE Region: Mountain Empire
Lat/Lon: 32.954/-116.643

Observations

Time Wind Speed/Gust Temp(F) RH Fuel Moist Fuel Temp(F) Dewpt(F) Tmax(F) Tmin(F) Accum Precip 10-min Precip SL Press(mb)
2/27 11:40pm 260 14 G 25 43° 100% - - 43° 46.5° 41.6° - - 1012.0
2/27 11:20pm 236 9 G 16 44° 100% - - 44° 46.5° 41.6° - - 1011.0
2/27 11:10pm 231 12 G 23 44° 100% - - 44° 46.5° 41.6° - - 1011.0
2/27 11:00pm 211 10 G 19 44° 100% - - 44° 46.5° 41.6° - - 1011.0
2/27 10:50pm 212 12 G 22 44° 100% - - 44° 46.5° 41.6° - - 1011.0
2/27 10:40pm 228 17 G 27 44° 100% - - 44° 46.5° 41.6° - - 1011.0
2/27 10:30pm 227 17 G 30 44° 100% - - 44° 46.5° 41.6° - - 1011.0
2/27 10:20pm 231 20 G 34 44° 100% - - 44° 46.5° 41.6° - - 1011.0
2/27 10:10pm 235 18 G 39 44° 100% - - 44° 46.5° 41.6° - - 1011.0
2/27 10:00pm 223 10 G 18 44° 100% - - 44° 46.5° 41.6° - - 1011.0
2/27 9:50pm 214 12 G 23 44° 100% - - 44° 46.5° 41.6° - - 1011.0
2/27 9:40pm 211 15 G 23 44° 100% - - 44° 46.5° 41.6° - - 1011.0
2/27 9:30pm 211 16 G 23 44° 100% - - 44° 46.5° 41.6° - - 1011.0
2/27 9:20pm 207 19 G 29 44° 100% - - 44° 46.5° 41.6° - - 1011.0
2/27 9:10pm 208 19 G 33 44° 100% - - 44° 46.5° 41.6° - - 1011.0
2/27 9:00pm 206 19 G 33 44° 100% - - 44° 46.5° 41.6° - - 1011.0
2/27 8:50pm 211 16 G 25 44° 100% - - 44° 46.5° 41.6° - - 1011.0
2/27 8:40pm 204 15 G 23 44° 100% - - 44° 46.5° 41.6° - - 1011.0
2/27 8:30pm 201 16 G 26 44° 100% - - 44° 46.5° 41.6° - - 1011.0
2/27 8:20pm 188 19 G 27 44° 98% - - 44° 46.5° 41.6° - - 1010.0
2/27 8:10pm 183 20 G 32 44° 98% - - 44° 46.5° 41.6° - - 1010.0
2/27 8:00pm 180 19 G 33 44° 97% - - 43° 46.5° 41.6° - - 1010.0
2/27 7:50pm 176 15 G 24 44° 97% - - 43° 46.5° 41.6° - - 1010.0
2/27 7:40pm 170 13 G 21 44° 97% - - 43° 46.5° 41.6° - - 1010.0
2/27 7:30pm 172 14 G 20 44° 97% - - 43° 46.5° 41.6° - - 1010.0
2/27 7:20pm 171 13 G 22 44° 96% - - 43° 46.5° 41.6° - - 1010.0
2/27 7:10pm 173 14 G 25 44° 97% - - 43° 46.5° 41.6° - - 1010.0
2/27 7:00pm 180 17 G 25 44° 97% - - 43° 46.5° 41.6° - - 1010.0
2/27 6:50pm 181 17 G 23 44° 98% - - 43° 46.5° 41.6° - - 1011.0
2/27 6:40pm 172 16 G 27 44° 99% - - 44° 46.5° 41.6° - - 1010.0
2/27 6:30pm 173 17 G 27 44° 100% - - 44° 46.5° 41.6° - - 1010.0
2/27 6:20pm 179 18 G 29 44° 100% - - 44° 46.5° 41.6° - - 1010.0
2/27 6:10pm 195 16 G 25 44° 100% - - 44° 46.5° 41.6° - - 1011.0
2/27 6:00pm 208 15 G 24 44° 100% - - 44° 46.5° 41.6° - - 1011.0
2/27 5:50pm 189 16 G 23 44° 100% - - 44° 46.5° 41.6° - - 1011.0
2/27 5:40pm 187 13 G 20 44° 100% - - 44° 46.5° 41.6° - - 1011.0
2/27 5:30pm 205 13 G 19 44° 100% - - 44° 46.5° 41.6° - - 1011.0
2/27 5:20pm 214 12 G 23 44° 100% - - 44° 46.5° 41.6° - - 1011.0
2/27 5:10pm 213 14 G 21 44° 100% - - 44° 46.5° 41.6° - - 1011.0
2/27 5:00pm 185 16 G 24 44° 100% - - 44° 46.5° 41.6° - - 1011.0
2/27 4:50pm 189 15 G 20 44° 100% - - 44° 46.5° 41.6° - - 1011.0
2/27 4:40pm 180 18 G 25 44° 100% - - 44° 46.5° 41.6° - - 1011.0
2/27 4:30pm 179 16 G 23 44° 100% - - 44° 46.5° 41.6° - - 1011.0
2/27 4:20pm 180 18 G 27 44° 100% - - 44° 46.5° 41.6° - - 1011.0
2/27 4:10pm 179 19 G 28 44° 100% - - 44° 46.5° 41.6° - - 1011.0
2/27 4:00pm 184 18 G 26 44° 100% - - 44° 46.5° 41.6° - - 1011.0
2/27 3:50pm 185 15 G 28 44° 100% - - 44° 46.5° 41.6° - - 1011.0
2/27 3:40pm 195 16 G 27 45° 100% - - 45° 46.5° 41.6° - - 1011.0
2/27 3:30pm 199 16 G 27 45° 100% - - 45° 46.5° 41.6° - - 1011.0
2/27 3:20pm 201 18 G 30 45° 100% - - 45° 46.5° 41.6° - - 1012.0
2/27 3:10pm 208 18 G 26 45° 100% - - 45° 46.5° 41.6° - - 1012.0
2/27 3:00pm 203 18 G 28 45° 100% - - 45° 46.5° 41.6° - - 1012.0
2/27 2:50pm 202 20 G 34 45° 100% - - 45° 46.5° 41.6° - - 1012.0
2/27 2:40pm 204 20 G 33 45° 100% - - 45° 46.5° 41.6° - - 1012.0
2/27 2:30pm 202 20 G 31 45° 100% - - 45° 46.5° 41.6° - - 1012.0
2/27 2:20pm 203 18 G 28 45° 100% - - 45° 46.5° 41.6° - - 1012.0
2/27 2:10pm 200 20 G 33 45° 100% - - 45° 46.5° 41.6° - - 1011.0
2/27 2:00pm 209 20 G 32 45° 100% - - 45° 46.5° 41.6° - - 1012.0
2/27 1:50pm 209 22 G 34 45° 100% - - 45° 46.5° 41.6° - - 1011.0
2/27 1:40pm 205 22 G 32 45° 100% - - 45° 46.5° 41.6° - - 1011.0
2/27 1:30pm 205 23 G 35 45° 100% - - 45° 46.5° 41.6° - - 1011.0
2/27 1:20pm 208 19 G 32 45° 100% - - 45° 46.5° 41.6° - - 1011.0
2/27 1:10pm 204 21 G 29 45° 100% - - 45° 46.5° 41.6° - - 1012.0
2/27 1:00pm 202 20 G 29 45° 100% - - 45° 46.5° 41.6° - - 1012.0
2/27 12:50pm 201 21 G 34 45° 100% - - 45° 46.5° 41.6° - - 1012.0
2/27 12:40pm 200 23 G 34 46° 100% - - 46° 46.5° 41.6° - - 1012.0
2/27 12:30pm 202 18 G 27 46° 100% - - 46° 46.5° 41.6° - - 1012.0
2/27 12:20pm 192 15 G 22 46° 100% - - 46° 46.5° 41.6° - - 1013.0
2/27 12:10pm 187 13 G 20 45° 100% - - 45° 46.5° 41.6° - - 1013.0
2/27 12:00pm 195 15 G 26 45° 100% - - 45° 46.5° 41.6° - - 1013.0
2/27 11:50am 195 18 G 27 45° 100% - - 45° 46.5° 41.6° - - 1013.0
2/27 11:40am 213 13 G 26 45° 100% - - 45° 46.5° 41.6° - - 1013.0
2/27 11:30am 230 12 G 18 45° 100% - - 45° 46.5° 41.6° - - 1013.0
2/27 11:20am 219 11 G 20 45° 100% - - 45° 46.5° 41.6° - - 1013.0
2/27 11:10am 218 11 G 19 46° 100% - - 46° 46.5° 41.6° - - 1013.0
2/27 11:00am 231 12 G 19 46° 100% - - 46° 46.5° 41.6° - - 1014.0
2/27 10:50am 218 14 G 27 46° 100% - - 46° 46.5° 41.6° - - 1013.0
2/27 10:40am 213 16 G 26 46° 100% - - 46° 46.5° 41.6° - - 1013.0
2/27 10:30am 208 16 G 29 46° 100% - - 46° 46.5° 41.6° - - 1013.0
2/27 10:20am 209 14 G 21 46° 100% - - 46° 46.5° 41.6° - - 1013.0
2/27 10:10am 205 13 G 22 46° 100% - - 46° 46.5° 41.6° - - 1013.0
2/27 10:00am 227 11 G 20 46° 100% - - 46° 46.5° 41.6° - - 1013.0
2/27 9:50am 214 10 G 18 46° 100% - - 46° 46.5° 41.6° - - 1013.0
2/27 9:40am 200 13 G 20 46° 100% - - 46° 46.5° 41.6° - - 1013.0
2/27 9:30am 195 13 G 21 46° 100% - - 46° 46.5° 41.6° - - 1013.0
2/27 9:20am 199 11 G 15 46° 100% - - 46° 46.5° 41.6° - - 1013.0
2/27 9:10am 201 12 G 19 46° 100% - - 46° 46.5° 41.6° - - 1013.0
2/27 9:00am 198 11 G 17 46° 100% - - 46° 46.5° 41.6° - - 1013.0
2/27 8:50am 194 12 G 18 46° 100% - - 46° 46.5° 41.6° - - 1013.0
2/27 8:40am 204 12 G 21 46° 100% - - 46° 46.5° 41.6° - - 1013.0
2/27 8:30am 201 15 G 22 46° 100% - - 46° 46.5° 41.6° - - 1013.0
2/27 8:20am 199 11 G 16 46° 100% - - 46° 46.5° 41.6° - - 1013.0
2/27 8:10am 207 10 G 15 46° 100% - - 46° 46.5° 41.6° - - 1013.0
2/27 8:00am 234 9 G 16 46° 100% - - 46° 46.5° 41.6° - - 1013.0
2/27 7:50am 230 9 G 15 46° 100% - - 46° 46.5° 41.6° - - 1013.0
2/27 7:40am 210 10 G 17 46° 100% - - 46° 46.5° 41.6° - - 1012.0
2/27 7:30am 198 11 G 16 46° 100% - - 46° 46.5° 41.6° - - 1012.0
2/27 7:20am 205 12 G 20 46° 100% - - 46° 46.5° 41.6° - - 1012.0
2/27 7:10am 196 13 G 18 46° 100% - - 46° 46.4° 41.6° - - 1013.0
2/27 7:00am 198 13 G 21 46° 100% - - 46° 46.3° 41.6° - - 1013.0
2/27 6:50am 197 14 G 21 46° 100% - - 46° 46.2° 41.6° - - 1012.0
2/27 6:40am 193 13 G 18 46° 100% - - 46° 46.1° 41.6° - - 1012.0
2/27 6:30am 186 11 G 16 46° 100% - - 46° 46.1° 41.6° - - 1012.0
2/27 6:20am 200 12 G 18 45° 100% - - 45° 46.1° 41.6° - - 1012.0
2/27 6:10am 199 12 G 22 46° 100% - - 46° 46.1° 41.6° - - 1012.0
2/27 6:00am 195 13 G 21 46° 100% - - 46° 46.1° 41.6° - - 1012.0
2/27 5:50am 195 14 G 22 46° 100% - - 46° 46.1° 41.6° - - 1012.0
2/27 5:40am 188 18 G 25 46° 100% - - 46° 46.1° 41.6° - - 1011.0
2/27 5:30am 184 16 G 25 46° 100% - - 46° 46.1° 41.6° - - 1011.0
2/27 5:20am 184 17 G 24 46° 100% - - 46° 46.1° 41.6° - - 1011.0
2/27 5:10am 182 17 G 24 46° 100% - - 46° 46.1° 41.6° - - 1012.0
2/27 5:00am 182 18 G 26 45° 100% - - 45° 46.1° 41.6° - - 1012.0
2/27 4:50am 180 16 G 23 45° 100% - - 45° 45.9° 41.6° - - 1012.0
2/27 4:40am 177 16 G 24 45° 100% - - 45° 45.9° 41.6° - - 1012.0
2/27 4:30am 177 17 G 28 45° 100% - - 45° 45.9° 41.6° - - 1011.0
2/27 4:20am 179 18 G 27 45° 100% - - 45° 45.8° 41.6° - - 1012.0
2/27 4:10am 181 18 G 27 45° 100% - - 45° 45.7° 41.6° - - 1012.0
2/27 4:00am 186 17 G 25 45° 100% - - 45° 45.6° 41.6° - - 1012.0
2/27 3:50am 185 16 G 24 45° 100% - - 45° 45.5° 41.6° - - 1012.0
2/27 3:40am 187 13 G 20 45° 100% - - 45° 45.4° 41.6° - - 1012.0
2/27 3:30am 188 11 G 16 45° 100% - - 45° 45° 41.6° - - 1013.0
2/27 3:20am 186 13 G 21 45° 100% - - 45° 45° 41.6° - - 1013.0
2/27 3:10am 182 14 G 20 44° 100% - - 44° 44.9° 41.6° - - 1012.0
2/27 3:00am 177 14 G 20 44° 100% - - 44° 44.9° 41.6° - - 1013.0
2/27 2:50am 174 12 G 20 44° 100% - - 44° 44.7° 41.6° - - 1013.0
2/27 2:40am 170 10 G 17 44° 100% - - 44° 44.4° 41.6° - - 1013.0
2/27 2:30am 178 10 G 14 44° 100% - - 44° 44.4° 41.6° - - 1014.0
2/27 2:20am 186 12 G 17 44° 100% - - 44° 44° 41.6° - - 1014.0
2/27 2:10am 180 11 G 14 43° 100% - - 43° 43.8° 41.6° - - 1014.0
2/27 2:00am 180 10 G 15 43° 100% - - 43° 43.8° 41.6° - - 1014.0
2/27 1:50am 186 9 G 13 43° 100% - - 43° 43.8° 41.6° - - 1014.0
2/27 1:40am 186 10 G 14 43° 100% - - 43° 43.7° 41.6° - - 1015.0
2/27 1:30am 182 10 G 15 43° 100% - - 43° 43.5° 41.6° - - 1015.0
2/27 1:20am 186 10 G 13 43° 100% - - 43° 43.4° 41.6° - - 1015.0
2/27 1:10am 180 11 G 16 43° 100% - - 43° 43.3° 41.6° - - 1015.0
2/27 1:00am 182 11 G 17 43° 100% - - 43° 43.2° 41.6° - - 1015.0
2/27 12:50am 187 11 G 15 43° 100% - - 43° 43° 41.6° - - 1015.0
2/27 12:40am 186 9 G 13 42° 100% - - 42° 42.8° 41.6° - - 1016.0
2/27 12:30am 180 9 G 15 42° 100% - - 42° 42.6° 41.6° - - 1016.0
2/27 12:20am 191 10 G 15 42° 100% - - 42° 42.5° 41.6° - - 1016.0
2/27 12:10am 185 11 G 17 42° 100% - - 42° 42.5° 41.7° - - 1016.0
2/27 12:00am 177 11 G 19 42° 100% - - 42° 44.1° 35.8° - - 1015.0
2/26 11:50pm 165 9 G 13 41° 99% - - 41° 44.1° 35.8° - - 1016.0
2/26 11:40pm 171 9 G 13 41° 98% - - 40° 44.1° 35.8° - - 1016.0
2/26 11:30pm 183 10 G 17 41° 96% - - 40° 44.1° 35.8° - - 1016.0
2/26 11:20pm 178 11 G 16 41° 93% - - 39° 44.1° 35.8° - - 1016.0
2/26 11:10pm 174 10 G 17 41° 90% - - 38° 44.1° 35.8° - - 1016.0
2/26 11:00pm 173 10 G 17 41° 84% - - 36° 44.1° 35.8° - - 1016.0
2/26 10:50pm 166 11 G 14 40° 79% - - 34° 44.1° 35.8° - - 1016.0
2/26 10:40pm 161 10 G 17 40° 75% - - 33° 44.1° 35.8° - - 1016.0
2/26 10:30pm 167 8 G 14 39° 78% - - 33° 44.1° 35.8° - - 1016.0
2/26 10:20pm 164 8 G 15 39° 89% - - 36° 44.1° 35.8° - - 1016.0
2/26 10:10pm 177 9 G 14 39° 93% - - 37° 44.1° 35.8° - - 1017.0
2/26 10:00pm 173 8 G 13 39° 94% - - 37° 44.1° 35.8° - - 1017.0
2/26 9:50pm 171 8 G 15 38° 98% - - 38° 44.1° 35.8° - - 1017.0
2/26 9:40pm 158 9 G 15 37° 100% - - 37° 44.1° 35.8° - - 1017.0
2/26 9:30pm 168 9 G 12 37° 100% - - 37° 44.1° 35.8° - - 1017.0
2/26 9:20pm 168 8 G 12 38° 100% - - 38° 44.1° 35.8° - - 1017.0
2/26 9:10pm 192 10 G 14 38° 100% - - 38° 44.1° 35.8° - - 1017.0
2/26 9:00pm 205 11 G 16 38° 100% - - 38° 44.1° 35.8° - - 1017.0
2/26 8:50pm 201 11 G 18 38° 100% - - 38° 44.1° 35.8° - - 1017.0
2/26 8:40pm 211 10 G 19 38° 100% - - 38° 44.1° 35.8° - - 1017.0
2/26 8:30pm 218 10 G 16 39° 100% - - 39° 44.1° 35.8° - - 1017.0
2/26 8:20pm 223 10 G 17 39° 100% - - 39° 44.1° 35.8° - - 1017.0
2/26 8:10pm 232 10 G 16 39° 100% - - 39° 44.1° 35.8° - - 1017.0
2/26 8:00pm 223 10 G 16 39° 100% - - 39° 44.1° 35.8° - - 1017.0
2/26 7:50pm 227 11 G 16 39° 100% - - 39° 44.1° 35.8° - - 1017.0
2/26 7:40pm 237 11 G 17 39° 100% - - 39° 44.1° 35.8° - - 1017.0
2/26 7:30pm 250 13 G 19 39° 100% - - 39° 44.1° 35.8° - - 1016.0
2/26 7:20pm 249 11 G 16 39° 100% - - 39° 44.1° 35.8° - - 1016.0
2/26 7:10pm 239 10 G 16 39° 100% - - 39° 44.1° 35.8° - - 1016.0
2/26 7:00pm 234 12 G 18 40° 99% - - 39° 44.1° 35.8° - - 1016.0
2/26 6:50pm 218 9 G 15 40° 98% - - 39° 44.1° 35.8° - - 1016.0
2/26 6:40pm 201 10 G 17 40° 99% - - 39° 44.1° 35.8° - - 1016.0
2/26 6:30pm 216 12 G 20 40° 100% - - 40° 44.1° 35.8° - - 1016.0
2/26 6:20pm 205 13 G 19 40° 100% - - 40° 44.1° 35.8° - - 1016.0
2/26 6:10pm 214 9 G 20 40° 100% - - 40° 44.1° 35.8° - - 1016.0
2/26 6:00pm 236 11 G 20 40° 100% - - 40° 44.1° 35.8° - - 1016.0
2/26 5:50pm 228 11 G 21 40° 100% - - 40° 44.1° 35.8° - - 1016.0
2/26 5:40pm 229 11 G 18 40° 100% - - 40° 44.1° 35.8° - - 1016.0
2/26 5:30pm 226 10 G 17 40° 99% - - 40° 44.1° 35.8° - - 1016.0
2/26 5:20pm 229 11 G 17 40° 98% - - 40° 44.1° 35.8° - - 1016.0
2/26 5:10pm 234 10 G 16 41° 96% - - 40° 44.1° 35.8° - - 1016.0
2/26 5:00pm 228 11 G 17 41° 96% - - 40° 44.1° 35.8° - - 1016.0